Nanticoke — WDC4353 — position and weather

sailwx.info

Track history (hours):
 
Tides and Currents Weather Stations Pressure Air Temp Water Temp Dewpoint Dewpoint Depression Visibility Wind Speed Wind Dir Waves Ship Positions

Nanticoke

Owner: Vane Line Bunkering, Baltimore, MD. More information available from US FCC via Universal Licensing System and Coast Guard Vessel Documentation Center.

Last reported at 2016-Jul-23 14:08 UTC. Time now 2016-Jul-23 19:18 UTC.
Position N 39°57' W 073°59'.

Length 34 m; draft 4.7 m.

Type: Towing. MMSI: 367023480.

Date/timePositionNaut miles runAvg speedWind from/ knotsBaromVisibWave heightAir tempDewpointWater temp
2016-Jul-23 14:08N 39°57' W 073°59'4 7.5
2016-Jul-23 13:33N 39°53' W 073°59'8 7.5
2016-Jul-23 12:32N 39°45' W 073°60'7 6.7
2016-Jul-23 11:30N 39°39' W 074°03'7 6.9
2016-Jul-23 10:33N 39°34' W 074°08'7 6.8
2016-Jul-23 09:33N 39°28' W 074°13'6 6.4
2016-Jul-23 08:33N 39°22' W 074°16'7 7.0
2016-Jul-23 07:32N 39°17' W 074°23'7 7.1
2016-Jul-23 06:31N 39°12' W 074°29'15 7.3
2016-Jul-23 04:31N 39°00' W 074°41'7 7.0
2016-Jul-23 03:33N 38°54' W 074°45'6 6.4
2016-Jul-23 02:34N 38°50' W 074°50'15 4.5
2016-Jul-22 23:16N 38°57' W 075°07'5 7.0
2016-Jul-22 22:33N 39°01' W 075°09'8 8.4
2016-Jul-22 21:33N 39°09' W 075°15'9 8.7
2016-Jul-22 20:33N 39°16' W 075°21'8 8.3
2016-Jul-22 19:33N 39°22' W 075°28'7 7.2
2016-Jul-22 18:33N 39°28' W 075°33'6 5.7
2016-Jul-22 17:33N 39°33' W 075°33'5 4.6
2016-Jul-22 16:33N 39°38' W 075°35'5 5.3
2016-Jul-22 15:33N 39°42' W 075°31'7 6.8
2016-Jul-22 14:33N 39°48' W 075°26'2 1.5
2016-Jul-22 13:33N 39°49' W 075°24'7 7.0
2016-Jul-22 12:33N 39°51' W 075°16'4 3.6
2016-Jul-22 11:33N 39°54' W 075°12'0 0.0
2016-Jul-22 10:33N 39°54' W 075°12'0 0.0
2016-Jul-22 09:33N 39°54' W 075°12'0 0.0
2016-Jul-22 08:33N 39°54' W 075°12'0 0.0
2016-Jul-22 07:33N 39°54' W 075°12'0 0.0
2016-Jul-22 05:33N 39°54' W 075°12'0 0.0
2016-Jul-22 04:33N 39°54' W 075°12'0 0.0
2016-Jul-22 03:33N 39°54' W 075°12'0 0.0
2016-Jul-22 02:33N 39°54' W 075°12'0 0.0
2016-Jul-22 01:33N 39°54' W 075°12'0 0.0
2016-Jul-22 00:33N 39°54' W 075°12'1 0.8
2016-Jul-21 23:34N 39°53' W 075°12'6 6.4
2016-Jul-21 22:34N 39°51' W 075°20'4 4.0
2016-Jul-21 21:33N 39°49' W 075°24'1 0.9
2016-Jul-21 20:33N 39°49' W 075°23'0 0.0
2016-Jul-21 19:33N 39°49' W 075°23'0 0.0
2016-Jul-21 18:33N 39°49' W 075°23'0 0.0
2016-Jul-21 17:33N 39°49' W 075°23'0 0.0
2016-Jul-21 16:33N 39°49' W 075°23'0 0.0
2016-Jul-21 15:33N 39°49' W 075°23'1 0.6
2016-Jul-21 14:33N 39°49' W 075°24'9 9.2
2016-Jul-21 13:33N 39°41' W 075°31'8 7.9
2016-Jul-21 12:33N 39°34' W 075°33'8 7.6
2016-Jul-21 11:34N 39°26' W 075°32'8 7.9
2016-Jul-21 10:33N 39°20' W 075°25'8 7.6
2016-Jul-21 09:33N 39°14' W 075°19'8 7.8
2016-Jul-21 08:33N 39°08' W 075°13'8 8.2
2016-Jul-21 07:33N 39°00' W 075°09'8 7.6
2016-Jul-21 06:33N 38°53' W 075°04'3 2.8
2016-Jul-21 05:33N 38°51' W 075°03'7 7.1
2016-Jul-21 04:33N 38°49' W 074°54'12 9.2
2016-Jul-21 03:13N 38°58' W 074°43'6 9.2
2016-Jul-21 02:33N 39°02' W 074°38'9 9.5
2016-Jul-21 01:34N 39°09' W 074°30'20 9.7
2016-Jul-20 23:33N 39°24' W 074°13'10 9.7
2016-Jul-20 22:33N 39°32' W 074°07'10 9.7
2016-Jul-20 21:32N 39°41' W 074°01'9 9.5
2016-Jul-20 20:33N 39°50' W 073°57'39 9.6
2016-Jul-20 16:27N 40°29' W 073°55'8 9.3
2016-Jul-20 15:33N 40°35' W 074°02'3 3.1
2016-Jul-20 14:33N 40°38' W 074°04'2 2.4
2016-Jul-20 13:33N 40°39' W 074°07'5 4.6
2016-Jul-20 12:33N 40°36' W 074°12'1 0.4
2016-Jul-20 10:29N 40°36' W 074°12'7 7.1
2016-Jul-20 09:34N 40°39' W 074°05'4 3.6
2016-Jul-20 08:33N 40°40' W 074°00'0 0.0
2016-Jul-20 07:33N 40°40' W 074°00'0 0.0
2016-Jul-20 06:34N 40°40' W 074°00'0 0.0
2016-Jul-20 05:33N 40°40' W 074°00'0 0.0
2016-Jul-20 04:33N 40°40' W 074°00'0 0.0
2016-Jul-20 03:33N 40°40' W 074°00'0 0.0
2016-Jul-20 02:33N 40°40' W 074°00'0 0.0
2016-Jul-20 01:33N 40°40' W 074°00'7 6.7
2016-Jul-20 00:33N 40°39' W 074°09'3 1.5
2016-Jul-19 22:15N 40°36' W 074°12'4 5.3
2016-Jul-19 21:33N 40°39' W 074°08'4 4.4
2016-Jul-19 20:33N 40°39' W 074°03'0 0.0
2016-Jul-19 19:33N 40°39' W 074°03'0 0.0
2016-Jul-19 18:33N 40°39' W 074°03'0 0.0
2016-Jul-19 17:33N 40°39' W 074°03'0 0.0
2016-Jul-19 16:33N 40°39' W 074°03'0 0.0
2016-Jul-19 15:33N 40°39' W 074°03'0 0.1
2016-Jul-19 14:33N 40°39' W 074°03'0 0.1
2016-Jul-19 13:33N 40°40' W 074°03'0 0.1
2016-Jul-19 12:33N 40°40' W 074°03'0 0.0
2016-Jul-19 11:33N 40°40' W 074°03'0 0.2
2016-Jul-19 10:33N 40°39' W 074°03'0 0.0
2016-Jul-19 09:33N 40°39' W 074°03'0 0.0
2016-Jul-19 08:33N 40°39' W 074°03'0 0.0
2016-Jul-19 07:33N 40°39' W 074°03'0 0.0
2016-Jul-19 04:33N 40°39' W 074°03'0 0.0
2016-Jul-19 03:33N 40°39' W 074°03'0 0.2
2016-Jul-19 02:33N 40°40' W 074°03'0 0.0
2016-Jul-19 01:33N 40°40' W 074°03'0 0.0
2016-Jul-19 00:33N 40°40' W 074°03'0 0.1
2016-Jul-18 23:33N 40°40' W 074°03'0 0.0
2016-Jul-18 22:33N 40°40' W 074°03'0 0.1
2016-Jul-18 21:33N 40°40' W 074°03'0 0.2
2016-Jul-18 20:33N 40°39' W 074°03'0 0.0
2016-Jul-18 19:34N 40°39' W 074°03'0 0.0
2016-Jul-18 18:33N 40°39' W 074°03'0 0.0
2016-Jul-18 17:33N 40°39' W 074°03'0 0.0
2016-Jul-18 16:33N 40°39' W 074°03'0 0.0
2016-Jul-18 15:33N 40°39' W 074°03'0 0.1
2016-Jul-18 14:33N 40°39' W 074°03'0 0.2
2016-Jul-18 13:33N 40°40' W 074°03'0 0.0
2016-Jul-18 12:34N 40°40' W 074°03'0 0.0
2016-Jul-18 11:34N 40°40' W 074°03'0 0.0
2016-Jul-18 10:34N 40°40' W 074°03'0 0.2
2016-Jul-18 09:33N 40°39' W 074°03'2 2.1
2016-Jul-18 08:34N 40°37' W 074°03'5 4.7
2016-Jul-18 07:34N 40°33' W 074°01'20 6.7
2016-Jul-18 04:30N 40°13' W 073°54'7 7.5
2016-Jul-18 03:31N 40°06' W 073°55'8 7.8
2016-Jul-18 02:34N 39°59' W 073°58'19 8.0
2016-Jul-18 00:11N 39°40' W 074°03'6 8.0
2016-Jul-17 23:30N 39°35' W 074°06'8 7.9
2016-Jul-17 22:32N 39°29' W 074°11'8 7.8
2016-Jul-17 21:31N 39°22' W 074°17'7 7.6
2016-Jul-17 20:34N 39°17' W 074°23'8 7.5
2016-Jul-17 19:32N 39°11' W 074°30'7 7.6
2016-Jul-17 18:34N 39°05' W 074°35'8 7.5
2016-Jul-17 17:30N 38°59' W 074°42'7 7.5
2016-Jul-17 16:34N 38°53' W 074°47'8 7.6
2016-Jul-17 15:31N 38°48' W 074°55'8 7.3
2016-Jul-17 14:27N 38°52' W 075°04'8 8.3
2016-Jul-17 13:33N 38°59' W 075°08'5 5.5
2016-Jul-17 12:33N 39°04' W 075°11'8 7.7
2016-Jul-17 11:34N 39°11' W 075°16'7 7.3
2016-Jul-17 10:34N 39°17' W 075°21'8 8.1
2016-Jul-17 09:34N 39°23' W 075°28'9 8.6
2016-Jul-17 08:34N 39°31' W 075°33'9 8.7
2016-Jul-17 07:34N 39°39' W 075°33'10 9.8
2016-Jul-17 06:34N 39°48' W 075°26'12 6.2
2016-Jul-17 04:34N 39°54' W 075°12'0 0.2
2016-Jul-17 03:33N 39°54' W 075°12'0 0.0
2016-Jul-17 02:34N 39°54' W 075°12'0 0.0
2016-Jul-17 01:33N 39°54' W 075°12'0 0.0
2016-Jul-17 00:33N 39°54' W 075°12'0 0.0
2016-Jul-16 23:33N 39°54' W 075°12'0 0.0
2016-Jul-16 22:34N 39°54' W 075°12'0 0.0
2016-Jul-16 21:34N 39°54' W 075°12'0 0.0
2016-Jul-16 20:34N 39°54' W 075°12'0 0.0
2016-Jul-16 19:33N 39°54' W 075°12'0 0.0
2016-Jul-16 18:34N 39°54' W 075°12'0 0.0
2016-Jul-16 17:33N 39°54' W 075°12'1 0.6
2016-Jul-16 16:33N 39°53' W 075°12'0 0.0
2016-Jul-16 15:34N 39°53' W 075°12'1 0.6
2016-Jul-16 14:34N 39°54' W 075°12'0 0.0
2016-Jul-16 13:33N 39°54' W 075°12'0 0.0
2016-Jul-16 12:34N 39°54' W 075°12'8 8.4
2016-Jul-16 11:34N 39°50' W 075°22'2 1.9
2016-Jul-16 10:34N 39°49' W 075°24'2 2.4
2016-Jul-16 09:34N 39°47' W 075°27'8 7.5
2016-Jul-16 08:34N 39°41' W 075°31'6 6.5
2016-Jul-16 07:34N 39°34' W 075°33'7 7.0
2016-Jul-16 06:34N 39°27' W 075°34'14 6.8
2016-Jul-16 04:34N 39°17' W 075°22'7 7.3
2016-Jul-16 03:34N 39°11' W 075°17'9 8.6
2016-Jul-16 02:34N 39°04' W 075°10'8 8.3
2016-Jul-16 01:33N 38°56' W 075°06'9 8.2
2016-Jul-16 00:25N 38°48' W 074°60'7 8.5
2016-Jul-15 23:33N 38°50' W 074°51'41 9.3
2016-Jul-15 19:06N 39°22' W 074°17'5 9.4
2016-Jul-15 18:33N 39°27' W 074°14'9 9.4
2016-Jul-15 17:34N 39°34' W 074°07'9 9.3
2016-Jul-15 16:34N 39°43' W 074°03'9 9.1
2016-Jul-15 15:32N 39°52' W 074°01'13 9.2
2016-Jul-15 14:10N 40°05' W 073°58'17 9.4
2016-Jul-15 12:23N 40°21' W 073°52'7 8.5
2016-Jul-15 11:33N 40°28' W 073°53'9 9.0
2016-Jul-15 10:34N 40°34' W 074°02'6 6.0
2016-Jul-15 09:33N 40°39' W 074°07'4 3.7
2016-Jul-15 08:33N 40°42' W 074°07'0 0.0
2016-Jul-15 07:34N 40°42' W 074°07'0 0.0
2016-Jul-15 06:33N 40°42' W 074°07'0 0.0
2016-Jul-15 05:33N 40°42' W 074°07'0 0.0
2016-Jul-15 04:33N 40°42' W 074°07'0 0.0
2016-Jul-15 03:34N 40°42' W 074°07'0 0.0
2016-Jul-15 02:33N 40°42' W 074°07'0 0.0
2016-Jul-15 01:34N 40°42' W 074°07'0 0.0
2016-Jul-15 00:33N 40°42' W 074°07'0 0.0
2016-Jul-14 23:33N 40°42' W 074°07'0 0.0
2016-Jul-14 22:33N 40°42' W 074°07'0 0.0
2016-Jul-14 21:33N 40°42' W 074°07'0 0.0
2016-Jul-14 20:33N 40°42' W 074°07'0 0.0
2016-Jul-14 19:34N 40°42' W 074°07'0 0.1
2016-Jul-14 18:34N 40°42' W 074°07'3 3.5
2016-Jul-14 17:34N 40°39' W 074°07'4 3.7
2016-Jul-14 16:34N 40°40' W 074°02'0 0.1
2016-Jul-14 15:33N 40°40' W 074°02'0 0.0
2016-Jul-14 14:33N 40°40' W 074°02'0 0.0
2016-Jul-14 13:33N 40°40' W 074°02'0 0.0
2016-Jul-14 12:33N 40°40' W 074°02'0 0.0
2016-Jul-14 11:34N 40°40' W 074°02'0 0.1
2016-Jul-14 10:33N 40°40' W 074°02'0 0.1
2016-Jul-14 09:34N 40°40' W 074°02'0 0.0
2016-Jul-14 08:34N 40°40' W 074°02'0 0.1
2016-Jul-14 07:34N 40°40' W 074°02'0 0.0
2016-Jul-14 06:34N 40°40' W 074°02'0 0.1
2016-Jul-14 05:34N 40°40' W 074°02'0 0.1
2016-Jul-14 04:34N 40°40' W 074°02'0 0.1
2016-Jul-14 03:34N 40°40' W 074°02'0 0.1
2016-Jul-14 02:33N 40°40' W 074°02'5 5.2
2016-Jul-14 01:34N 40°34' W 074°01'4 3.5
2016-Jul-14 00:34N 40°31' W 073°60'6 6.4
2016-Jul-13 23:34N 40°27' W 073°53'16 7.6
2016-Jul-13 21:27N 40°11' W 073°53'8 7.6
2016-Jul-13 20:26N 40°04' W 073°54'7 7.6
2016-Jul-13 19:34N 39°57' W 073°56'8 7.8
2016-Jul-13 18:33N 39°49' W 073°58'7 7.5
2016-Jul-13 17:34N 39°42' W 074°00'8 7.5
2016-Jul-13 16:34N 39°35' W 074°04'8 7.4
2016-Jul-13 15:33N 39°28' W 074°08'8 7.4
2016-Jul-13 14:31N 39°22' W 074°14'  
Track history (hours):
 
Tides and Currents Weather Stations Pressure Air Temp Water Temp Dewpoint Dewpoint Depression Visibility Wind Speed Wind Dir Waves Ship Positions

Nanticoke

Owner: Vane Line Bunkering, Baltimore, MD. More information available from US FCC via Universal Licensing System and Coast Guard Vessel Documentation Center.

Last reported at 2016-Jul-23 14:08 UTC. Time now 2016-Jul-23 19:18 UTC.
Position N 39°57' W 073°59'.

Length 34 m; draft 4.7 m.

Type: Towing. MMSI: 367023480.

Date/timePositionNaut miles runAvg speedWind from/ knotsBaromVisibWave heightAir tempDewpointWater temp
2016-Jul-23 14:08N 39°57' W 073°59'4 7.5
2016-Jul-23 13:33N 39°53' W 073°59'8 7.5
2016-Jul-23 12:32N 39°45' W 073°60'7 6.7
2016-Jul-23 11:30N 39°39' W 074°03'7 6.9
2016-Jul-23 10:33N 39°34' W 074°08'7 6.8
2016-Jul-23 09:33N 39°28' W 074°13'6 6.4
2016-Jul-23 08:33N 39°22' W 074°16'7 7.0
2016-Jul-23 07:32N 39°17' W 074°23'7 7.1
2016-Jul-23 06:31N 39°12' W 074°29'15 7.3
2016-Jul-23 04:31N 39°00' W 074°41'7 7.0
2016-Jul-23 03:33N 38°54' W 074°45'6 6.4
2016-Jul-23 02:34N 38°50' W 074°50'15 4.5
2016-Jul-22 23:16N 38°57' W 075°07'5 7.0
2016-Jul-22 22:33N 39°01' W 075°09'8 8.4
2016-Jul-22 21:33N 39°09' W 075°15'9 8.7
2016-Jul-22 20:33N 39°16' W 075°21'8 8.3
2016-Jul-22 19:33N 39°22' W 075°28'7 7.2
2016-Jul-22 18:33N 39°28' W 075°33'6 5.7
2016-Jul-22 17:33N 39°33' W 075°33'5 4.6
2016-Jul-22 16:33N 39°38' W 075°35'5 5.3
2016-Jul-22 15:33N 39°42' W 075°31'7 6.8
2016-Jul-22 14:33N 39°48' W 075°26'2 1.5
2016-Jul-22 13:33N 39°49' W 075°24'7 7.0
2016-Jul-22 12:33N 39°51' W 075°16'4 3.6
2016-Jul-22 11:33N 39°54' W 075°12'0 0.0
2016-Jul-22 10:33N 39°54' W 075°12'0 0.0
2016-Jul-22 09:33N 39°54' W 075°12'0 0.0
2016-Jul-22 08:33N 39°54' W 075°12'0 0.0
2016-Jul-22 07:33N 39°54' W 075°12'0 0.0
2016-Jul-22 05:33N 39°54' W 075°12'0 0.0
2016-Jul-22 04:33N 39°54' W 075°12'0 0.0
2016-Jul-22 03:33N 39°54' W 075°12'0 0.0
2016-Jul-22 02:33N 39°54' W 075°12'0 0.0
2016-Jul-22 01:33N 39°54' W 075°12'0 0.0
2016-Jul-22 00:33N 39°54' W 075°12'1 0.8
2016-Jul-21 23:34N 39°53' W 075°12'6 6.4
2016-Jul-21 22:34N 39°51' W 075°20'4 4.0
2016-Jul-21 21:33N 39°49' W 075°24'1 0.9
2016-Jul-21 20:33N 39°49' W 075°23'0 0.0
2016-Jul-21 19:33N 39°49' W 075°23'0 0.0
2016-Jul-21 18:33N 39°49' W 075°23'0 0.0
2016-Jul-21 17:33N 39°49' W 075°23'0 0.0
2016-Jul-21 16:33N 39°49' W 075°23'0 0.0
2016-Jul-21 15:33N 39°49' W 075°23'1 0.6
2016-Jul-21 14:33N 39°49' W 075°24'9 9.2
2016-Jul-21 13:33N 39°41' W 075°31'8 7.9
2016-Jul-21 12:33N 39°34' W 075°33'8 7.6
2016-Jul-21 11:34N 39°26' W 075°32'8 7.9
2016-Jul-21 10:33N 39°20' W 075°25'8 7.6
2016-Jul-21 09:33N 39°14' W 075°19'8 7.8
2016-Jul-21 08:33N 39°08' W 075°13'8 8.2
2016-Jul-21 07:33N 39°00' W 075°09'8 7.6
2016-Jul-21 06:33N 38°53' W 075°04'3 2.8
2016-Jul-21 05:33N 38°51' W 075°03'7 7.1
2016-Jul-21 04:33N 38°49' W 074°54'12 9.2
2016-Jul-21 03:13N 38°58' W 074°43'6 9.2
2016-Jul-21 02:33N 39°02' W 074°38'9 9.5
2016-Jul-21 01:34N 39°09' W 074°30'20 9.7
2016-Jul-20 23:33N 39°24' W 074°13'10 9.7
2016-Jul-20 22:33N 39°32' W 074°07'10 9.7
2016-Jul-20 21:32N 39°41' W 074°01'9 9.5
2016-Jul-20 20:33N 39°50' W 073°57'39 9.6
2016-Jul-20 16:27N 40°29' W 073°55'8 9.3
2016-Jul-20 15:33N 40°35' W 074°02'3 3.1
2016-Jul-20 14:33N 40°38' W 074°04'2 2.4
2016-Jul-20 13:33N 40°39' W 074°07'5 4.6
2016-Jul-20 12:33N 40°36' W 074°12'1 0.4
2016-Jul-20 10:29N 40°36' W 074°12'7 7.1
2016-Jul-20 09:34N 40°39' W 074°05'4 3.6
2016-Jul-20 08:33N 40°40' W 074°00'0 0.0
2016-Jul-20 07:33N 40°40' W 074°00'0 0.0
2016-Jul-20 06:34N 40°40' W 074°00'0 0.0
2016-Jul-20 05:33N 40°40' W 074°00'0 0.0
2016-Jul-20 04:33N 40°40' W 074°00'0 0.0
2016-Jul-20 03:33N 40°40' W 074°00'0 0.0
2016-Jul-20 02:33N 40°40' W 074°00'0 0.0
2016-Jul-20 01:33N 40°40' W 074°00'7 6.7
2016-Jul-20 00:33N 40°39' W 074°09'3 1.5
2016-Jul-19 22:15N 40°36' W 074°12'4 5.3
2016-Jul-19 21:33N 40°39' W 074°08'4 4.4
2016-Jul-19 20:33N 40°39' W 074°03'0 0.0
2016-Jul-19 19:33N 40°39' W 074°03'0 0.0
2016-Jul-19 18:33N 40°39' W 074°03'0 0.0
2016-Jul-19 17:33N 40°39' W 074°03'0 0.0
2016-Jul-19 16:33N 40°39' W 074°03'0 0.0
2016-Jul-19 15:33N 40°39' W 074°03'0 0.1
2016-Jul-19 14:33N 40°39' W 074°03'0 0.1
2016-Jul-19 13:33N 40°40' W 074°03'0 0.1
2016-Jul-19 12:33N 40°40' W 074°03'0 0.0
2016-Jul-19 11:33N 40°40' W 074°03'0 0.2
2016-Jul-19 10:33N 40°39' W 074°03'0 0.0
2016-Jul-19 09:33N 40°39' W 074°03'0 0.0
2016-Jul-19 08:33N 40°39' W 074°03'0 0.0
2016-Jul-19 07:33N 40°39' W 074°03'0 0.0
2016-Jul-19 04:33N 40°39' W 074°03'0 0.0
2016-Jul-19 03:33N 40°39' W 074°03'0 0.2
2016-Jul-19 02:33N 40°40' W 074°03'0 0.0
2016-Jul-19 01:33N 40°40' W 074°03'0 0.0
2016-Jul-19 00:33N 40°40' W 074°03'0 0.1
2016-Jul-18 23:33N 40°40' W 074°03'0 0.0
2016-Jul-18 22:33N 40°40' W 074°03'0 0.1
2016-Jul-18 21:33N 40°40' W 074°03'0 0.2
2016-Jul-18 20:33N 40°39' W 074°03'0 0.0
2016-Jul-18 19:34N 40°39' W 074°03'0 0.0
2016-Jul-18 18:33N 40°39' W 074°03'0 0.0
2016-Jul-18 17:33N 40°39' W 074°03'0 0.0
2016-Jul-18 16:33N 40°39' W 074°03'0 0.0
2016-Jul-18 15:33N 40°39' W 074°03'0 0.1
2016-Jul-18 14:33N 40°39' W 074°03'0 0.2
2016-Jul-18 13:33N 40°40' W 074°03'0 0.0
2016-Jul-18 12:34N 40°40' W 074°03'0 0.0
2016-Jul-18 11:34N 40°40' W 074°03'0 0.0
2016-Jul-18 10:34N 40°40' W 074°03'0 0.2
2016-Jul-18 09:33N 40°39' W 074°03'2 2.1
2016-Jul-18 08:34N 40°37' W 074°03'5 4.7
2016-Jul-18 07:34N 40°33' W 074°01'20 6.7
2016-Jul-18 04:30N 40°13' W 073°54'7 7.5
2016-Jul-18 03:31N 40°06' W 073°55'8 7.8
2016-Jul-18 02:34N 39°59' W 073°58'19 8.0
2016-Jul-18 00:11N 39°40' W 074°03'6 8.0
2016-Jul-17 23:30N 39°35' W 074°06'8 7.9
2016-Jul-17 22:32N 39°29' W 074°11'8 7.8
2016-Jul-17 21:31N 39°22' W 074°17'7 7.6
2016-Jul-17 20:34N 39°17' W 074°23'8 7.5
2016-Jul-17 19:32N 39°11' W 074°30'7 7.6
2016-Jul-17 18:34N 39°05' W 074°35'8 7.5
2016-Jul-17 17:30N 38°59' W 074°42'7 7.5
2016-Jul-17 16:34N 38°53' W 074°47'8 7.6
2016-Jul-17 15:31N 38°48' W 074°55'8 7.3
2016-Jul-17 14:27N 38°52' W 075°04'8 8.3
2016-Jul-17 13:33N 38°59' W 075°08'5 5.5
2016-Jul-17 12:33N 39°04' W 075°11'8 7.7
2016-Jul-17 11:34N 39°11' W 075°16'7 7.3
2016-Jul-17 10:34N 39°17' W 075°21'8 8.1
2016-Jul-17 09:34N 39°23' W 075°28'9 8.6
2016-Jul-17 08:34N 39°31' W 075°33'9 8.7
2016-Jul-17 07:34N 39°39' W 075°33'10 9.8
2016-Jul-17 06:34N 39°48' W 075°26'12 6.2
2016-Jul-17 04:34N 39°54' W 075°12'0 0.2
2016-Jul-17 03:33N 39°54' W 075°12'0 0.0
2016-Jul-17 02:34N 39°54' W 075°12'0 0.0
2016-Jul-17 01:33N 39°54' W 075°12'0 0.0
2016-Jul-17 00:33N 39°54' W 075°12'0 0.0
2016-Jul-16 23:33N 39°54' W 075°12'0 0.0
2016-Jul-16 22:34N 39°54' W 075°12'0 0.0
2016-Jul-16 21:34N 39°54' W 075°12'0 0.0
2016-Jul-16 20:34N 39°54' W 075°12'0 0.0
2016-Jul-16 19:33N 39°54' W 075°12'0 0.0
2016-Jul-16 18:34N 39°54' W 075°12'0 0.0
2016-Jul-16 17:33N 39°54' W 075°12'1 0.6
2016-Jul-16 16:33N 39°53' W 075°12'0 0.0
2016-Jul-16 15:34N 39°53' W 075°12'1 0.6
2016-Jul-16 14:34N 39°54' W 075°12'0 0.0
2016-Jul-16 13:33N 39°54' W 075°12'0 0.0
2016-Jul-16 12:34N 39°54' W 075°12'8 8.4
2016-Jul-16 11:34N 39°50' W 075°22'2 1.9
2016-Jul-16 10:34N 39°49' W 075°24'2 2.4
2016-Jul-16 09:34N 39°47' W 075°27'8 7.5
2016-Jul-16 08:34N 39°41' W 075°31'6 6.5
2016-Jul-16 07:34N 39°34' W 075°33'7 7.0
2016-Jul-16 06:34N 39°27' W 075°34'14 6.8
2016-Jul-16 04:34N 39°17' W 075°22'7 7.3
2016-Jul-16 03:34N 39°11' W 075°17'9 8.6
2016-Jul-16 02:34N 39°04' W 075°10'8 8.3
2016-Jul-16 01:33N 38°56' W 075°06'9 8.2
2016-Jul-16 00:25N 38°48' W 074°60'7 8.5
2016-Jul-15 23:33N 38°50' W 074°51'41 9.3
2016-Jul-15 19:06N 39°22' W 074°17'5 9.4
2016-Jul-15 18:33N 39°27' W 074°14'9 9.4
2016-Jul-15 17:34N 39°34' W 074°07'9 9.3
2016-Jul-15 16:34N 39°43' W 074°03'9 9.1
2016-Jul-15 15:32N 39°52' W 074°01'13 9.2
2016-Jul-15 14:10N 40°05' W 073°58'17 9.4
2016-Jul-15 12:23N 40°21' W 073°52'7 8.5
2016-Jul-15 11:33N 40°28' W 073°53'9 9.0
2016-Jul-15 10:34N 40°34' W 074°02'6 6.0
2016-Jul-15 09:33N 40°39' W 074°07'4 3.7
2016-Jul-15 08:33N 40°42' W 074°07'0 0.0
2016-Jul-15 07:34N 40°42' W 074°07'0 0.0
2016-Jul-15 06:33N 40°42' W 074°07'0 0.0
2016-Jul-15 05:33N 40°42' W 074°07'0 0.0
2016-Jul-15 04:33N 40°42' W 074°07'0 0.0
2016-Jul-15 03:34N 40°42' W 074°07'0 0.0
2016-Jul-15 02:33N 40°42' W 074°07'0 0.0
2016-Jul-15 01:34N 40°42' W 074°07'0 0.0
2016-Jul-15 00:33N 40°42' W 074°07'0 0.0
2016-Jul-14 23:33N 40°42' W 074°07'0 0.0
2016-Jul-14 22:33N 40°42' W 074°07'0 0.0
2016-Jul-14 21:33N 40°42' W 074°07'0 0.0
2016-Jul-14 20:33N 40°42' W 074°07'0 0.0
2016-Jul-14 19:34N 40°42' W 074°07'0 0.1
2016-Jul-14 18:34N 40°42' W 074°07'3 3.5
2016-Jul-14 17:34N 40°39' W 074°07'4 3.7
2016-Jul-14 16:34N 40°40' W 074°02'0 0.1
2016-Jul-14 15:33N 40°40' W 074°02'0 0.0
2016-Jul-14 14:33N 40°40' W 074°02'0 0.0
2016-Jul-14 13:33N 40°40' W 074°02'0 0.0
2016-Jul-14 12:33N 40°40' W 074°02'0 0.0
2016-Jul-14 11:34N 40°40' W 074°02'0 0.1
2016-Jul-14 10:33N 40°40' W 074°02'0 0.1
2016-Jul-14 09:34N 40°40' W 074°02'0 0.0
2016-Jul-14 08:34N 40°40' W 074°02'0 0.1
2016-Jul-14 07:34N 40°40' W 074°02'0 0.0
2016-Jul-14 06:34N 40°40' W 074°02'0 0.1
2016-Jul-14 05:34N 40°40' W 074°02'0 0.1
2016-Jul-14 04:34N 40°40' W 074°02'0 0.1
2016-Jul-14 03:34N 40°40' W 074°02'0 0.1
2016-Jul-14 02:33N 40°40' W 074°02'5 5.2
2016-Jul-14 01:34N 40°34' W 074°01'4 3.5
2016-Jul-14 00:34N 40°31' W 073°60'6 6.4
2016-Jul-13 23:34N 40°27' W 073°53'16 7.6
2016-Jul-13 21:27N 40°11' W 073°53'8 7.6
2016-Jul-13 20:26N 40°04' W 073°54'7 7.6
2016-Jul-13 19:34N 39°57' W 073°56'8 7.8
2016-Jul-13 18:33N 39°49' W 073°58'7 7.5
2016-Jul-13 17:34N 39°42' W 074°00'8 7.5
2016-Jul-13 16:34N 39°35' W 074°04'8 7.4
2016-Jul-13 15:33N 39°28' W 074°08'8 7.4
2016-Jul-13 14:31N 39°22' W 074°14'  

Dump ship's entire track history